Time;durP1;ratioP1;P1;durP2;ratioP2;P2;SDS_P1;SDS_P2;PMS_P1;PMS_P2;Temp;Humidity;BMP_temperature;BMP_pressure;BME280_temperature;BME280_humidity;BME280_pressure;Samples;Min_cycle;Max_cycle;Signal;HPM_P1;HPM_P2
2024/02/25 00:00:59;;;;;;;0.23;0.10;;;;;;;3.06;94.71;99159.09;5063690;28;20503;-46
2024/02/25 00:03:26;;;;;;;0.20;0.20;;;;;;;2.90;94.54;99155.84;5060346;28;20454;-46
2024/02/25 00:05:52;;;;;;;0.20;0.10;;;;;;;2.98;94.26;99151.31;5073898;28;21085;-45
2024/02/25 00:08:19;;;;;;;0.30;0.20;;;;;;;3.10;95.32;99152.88;5074001;28;20499;-46
2024/02/25 00:10:46;;;;;;;0.20;0.20;;;;;;;2.96;94.95;99160.13;5073485;28;20465;-46
2024/02/25 00:13:12;;;;;;;0.30;0.10;;;;;;;2.90;94.99;99145.34;5073819;28;20449;-46
2024/02/25 00:15:38;;;;;;;0.30;0.20;;;;;;;2.87;95.14;99150.63;5073669;28;20472;-46
2024/02/25 00:18:05;;;;;;;0.20;0.20;;;;;;;2.88;94.90;99144.50;5071097;28;20454;-46
2024/02/25 00:20:32;;;;;;;0.20;0.13;;;;;;;2.95;96.04;99142.66;5063863;28;20471;-47
2024/02/25 00:22:58;;;;;;;0.30;0.13;;;;;;;3.08;95.66;99149.41;5072299;28;20449;-46
2024/02/25 00:25:25;;;;;;;0.30;0.10;;;;;;;3.03;95.03;99148.66;5073575;28;20532;-47
2024/02/25 00:27:51;;;;;;;0.30;0.10;;;;;;;3.02;94.08;99146.91;5073396;28;20446;-46
2024/02/25 00:30:17;;;;;;;0.23;0.10;;;;;;;2.91;94.77;99135.72;5073660;28;20931;-46
2024/02/25 00:32:44;;;;;;;0.20;0.10;;;;;;;3.05;95.34;99140.75;5073724;28;20460;-46
2024/02/25 00:35:11;;;;;;;0.20;0.10;;;;;;;3.18;95.59;99147.50;5073603;28;20918;-46
2024/02/25 00:37:38;;;;;;;0.20;0.20;;;;;;;3.02;96.12;99143.44;5073086;28;20949;-46
2024/02/25 00:40:05;;;;;;;0.20;0.10;;;;;;;3.14;96.14;99144.06;5073215;28;20549;-47
2024/02/25 00:42:32;;;;;;;0.20;0.20;;;;;;;3.25;96.68;99136.88;5072797;28;20537;-46
2024/02/25 00:44:58;;;;;;;0.20;0.20;;;;;;;3.44;96.28;99139.19;5072816;28;20531;-46
2024/02/25 00:47:29;;;;;;;0.20;0.20;;;;;;;3.51;96.62;99146.03;5073290;28;20501;-46
2024/02/25 00:49:56;;;;;;;0.60;0.60;;;;;;;3.62;96.97;99140.59;5065974;28;20449;-48
2024/02/25 00:52:24;;;;;;;0.20;0.10;;;;;;;3.77;97.09;99141.16;5072864;28;20503;-49
2024/02/25 00:54:50;;;;;;;0.20;0.20;;;;;;;3.77;96.99;99143.78;5072464;28;20446;-48
2024/02/25 00:57:18;;;;;;;0.20;0.10;;;;;;;3.87;96.69;99147.09;5055523;28;20538;-48
2024/02/25 00:59:44;;;;;;;0.20;0.10;;;;;;;3.84;97.09;99139.28;5052901;28;20462;-48
2024/02/25 01:02:11;;;;;;;0.30;0.10;;;;;;;3.79;97.18;99134.09;5066135;28;20451;-48
2024/02/25 01:04:37;;;;;;;0.30;0.10;;;;;;;3.74;97.06;99138.59;5065556;28;20490;-48
2024/02/25 01:07:04;;;;;;;0.20;0.20;;;;;;;3.88;97.41;99135.69;5072531;28;21006;-49
2024/02/25 01:09:30;;;;;;;0.30;0.20;;;;;;;3.97;97.05;99134.59;5072446;28;20545;-49
2024/02/25 01:11:57;;;;;;;0.20;0.10;;;;;;;3.91;96.79;99124.22;5072075;28;20940;-48
2024/02/25 01:14:24;;;;;;;0.20;0.10;;;;;;;3.80;97.28;99121.81;5072641;28;20452;-49
2024/02/25 01:16:51;;;;;;;0.20;0.10;;;;;;;3.70;97.70;99125.50;5059073;28;20473;-48
2024/02/25 01:19:18;;;;;;;0.20;0.10;;;;;;;3.70;97.97;99118.53;5059951;28;20453;-48
2024/02/25 01:21:44;;;;;;;0.20;0.10;;;;;;;3.78;98.95;99121.00;5070115;28;20446;-48
2024/02/25 01:24:11;;;;;;;0.20;0.10;;;;;;;3.67;99.58;99120.34;5072271;28;20446;-48
2024/02/25 01:26:39;;;;;;;0.20;0.20;;;;;;;3.75;99.13;99110.53;5071695;28;20547;-48
2024/02/25 01:29:10;;;;;;;0.20;0.10;;;;;;;3.64;98.56;99110.75;5071966;28;20446;-48
2024/02/25 01:31:43;;;;;;;0.20;0.10;;;;;;;3.87;98.76;99107.66;5071921;28;20529;-48
2024/02/25 01:34:13;;;;;;;0.20;0.20;;;;;;;3.50;98.74;99100.50;5072261;28;20456;-48
2024/02/25 01:36:41;;;;;;;0.30;0.20;;;;;;;3.82;99.65;99094.59;5073614;28;21005;-49
2024/02/25 01:39:08;;;;;;;0.30;0.10;;;;;;;3.82;98.54;99091.97;5072517;28;20457;-49
2024/02/25 01:41:35;;;;;;;0.30;0.10;;;;;;;3.93;98.63;99090.91;5073153;28;20465;-48
2024/02/25 01:44:01;;;;;;;0.30;0.20;;;;;;;4.01;98.87;99097.72;5072612;28;20528;-48
2024/02/25 01:46:28;;;;;;;0.20;0.10;;;;;;;4.05;98.30;99106.41;5072320;28;20490;-48
2024/02/25 01:48:56;;;;;;;0.20;0.10;;;;;;;4.16;98.35;99104.41;5066539;28;20456;-48
2024/02/25 01:51:24;;;;;;;0.20;0.10;;;;;;;3.91;98.58;99108.47;5072619;28;20477;-48
2024/02/25 01:53:50;;;;;;;0.20;0.20;;;;;;;3.93;98.40;99102.28;5072403;28;21006;-48
2024/02/25 01:56:17;;;;;;;0.20;0.10;;;;;;;3.85;98.50;99093.69;5061621;28;20479;-48
2024/02/25 01:58:45;;;;;;;0.30;0.10;;;;;;;3.82;98.41;99089.34;5055846;28;20528;-48
2024/02/25 02:01:15;;;;;;;0.20;0.10;;;;;;;3.83;97.96;99083.19;5071374;28;20485;-48
2024/02/25 02:03:41;;;;;;;0.30;0.10;;;;;;;3.80;98.01;99087.66;5058034;28;20481;-48
2024/02/25 02:06:09;;;;;;;5.33;5.00;;;;;;;3.93;98.43;99085.63;5071305;28;20513;-48
2024/02/25 02:08:37;;;;;;;0.30;0.10;;;;;;;3.80;98.60;99079.78;5071496;28;20446;-48
2024/02/25 02:11:17;;;;;;;0.20;0.17;;;;;;;3.84;98.42;99071.81;5071690;28;20454;-48
2024/02/25 02:13:44;;;;;;;0.20;0.20;;;;;;;3.85;97.54;99083.19;5071631;28;20992;-48
2024/02/25 02:16:15;;;;;;;0.20;0.10;;;;;;;3.81;98.50;99081.50;5072195;28;20462;-48
2024/02/25 02:18:43;;;;;;;0.20;0.10;;;;;;;3.85;98.97;99078.78;5064042;28;20447;-48
2024/02/25 02:21:14;;;;;;;0.20;0.10;;;;;;;3.96;99.21;99080.31;5053564;28;20455;-48
2024/02/25 02:23:41;;;;;;;0.20;0.10;;;;;;;3.89;99.22;99081.34;5072199;28;20454;-48
2024/02/25 02:26:07;;;;;;;0.20;0.10;;;;;;;3.98;99.33;99087.28;5071816;28;20504;-48
2024/02/25 02:28:33;;;;;;;0.20;0.20;;;;;;;3.92;99.24;99086.53;5072076;28;20519;-48
2024/02/25 02:31:00;;;;;;;0.20;0.10;;;;;;;3.81;99.19;99074.47;5071012;28;20545;-48
2024/02/25 02:33:26;;;;;;;0.20;0.20;;;;;;;3.76;100.00;99083.38;5072873;28;20481;-48
2024/02/25 02:35:53;;;;;;;0.20;0.10;;;;;;;3.94;100.00;99079.47;5074865;28;20624;-48
2024/02/25 02:38:20;;;;;;;0.20;0.10;;;;;;;3.95;99.13;99065.44;5074942;28;20477;-48
2024/02/25 02:40:46;;;;;;;0.30;0.20;;;;;;;4.13;99.04;99071.19;5074636;28;20449;-48
2024/02/25 02:43:13;;;;;;;0.20;0.20;;;;;;;4.05;98.78;99064.34;5074818;28;20445;-48
2024/02/25 02:45:40;;;;;;;0.30;0.20;;;;;;;4.00;99.49;99060.97;5075417;28;20469;-48
2024/02/25 02:48:11;;;;;;;0.20;0.10;;;;;;;3.84;100.00;99069.19;5072984;28;20485;-48
2024/02/25 02:50:37;;;;;;;0.20;0.13;;;;;;;3.94;100.00;99059.31;5074367;28;20481;-48
2024/02/25 02:53:04;;;;;;;0.20;0.10;;;;;;;4.13;100.00;99065.91;5078000;28;20528;-49
2024/02/25 02:55:31;;;;;;;0.30;0.10;;;;;;;4.22;100.00;99064.81;5072586;28;20544;-47
2024/02/25 02:57:57;;;;;;;0.30;0.10;;;;;;;4.23;99.62;99053.41;5057161;28;20443;-47
2024/02/25 03:00:24;;;;;;;0.20;0.10;;;;;;;4.03;100.00;99051.22;5059443;28;20525;-46
2024/02/25 03:02:50;;;;;;;0.20;0.20;;;;;;;4.21;100.00;99060.47;5063240;28;20485;-46
2024/02/25 03:05:17;;;;;;;0.20;0.10;;;;;;;4.13;100.00;99054.53;5073012;28;20466;-47
2024/02/25 03:07:48;;;;;;;0.20;0.10;;;;;;;4.13;100.00;99052.78;5074177;28;21089;-46
2024/02/25 03:10:17;;;;;;;0.20;0.10;;;;;;;4.23;100.00;99060.44;5074397;28;20475;-46
2024/02/25 03:12:44;;;;;;;0.20;0.17;;;;;;;4.32;99.76;99054.97;5074163;28;20457;-46
2024/02/25 03:15:12;;;;;;;0.20;0.20;;;;;;;4.33;100.00;99052.28;5074927;28;20462;-46
2024/02/25 03:17:42;;;;;;;0.20;0.10;;;;;;;4.30;99.98;99057.63;5075346;28;20536;-47
2024/02/25 03:20:09;;;;;;;0.20;0.10;;;;;;;4.30;100.00;99054.13;5062105;28;20454;-46
2024/02/25 03:22:36;;;;;;;0.20;0.10;;;;;;;4.35;100.00;99057.50;5074698;28;21082;-47
2024/02/25 03:25:03;;;;;;;0.20;0.10;;;;;;;4.47;99.89;99059.88;5061640;28;20473;-47
2024/02/25 03:27:30;;;;;;;0.20;0.10;;;;;;;4.49;99.98;99050.16;5074334;28;20501;-47
2024/02/25 03:29:57;;;;;;;0.20;0.10;;;;;;;4.50;99.92;99051.03;5074904;28;21024;-46
2024/02/25 03:32:24;;;;;;;0.20;0.10;;;;;;;4.49;100.00;99050.16;5074680;28;20450;-46
2024/02/25 03:34:50;;;;;;;0.67;0.67;;;;;;;4.56;99.41;99051.75;5075270;28;20829;-46
2024/02/25 03:37:17;;;;;;;0.30;0.10;;;;;;;4.53;99.26;99046.56;5074465;28;20507;-47
2024/02/25 03:39:44;;;;;;;0.20;0.10;;;;;;;4.44;99.60;99052.06;5074677;28;20474;-46
2024/02/25 03:42:11;;;;;;;0.20;0.20;;;;;;;4.40;100.00;99045.16;5074544;28;20458;-47
2024/02/25 03:44:40;;;;;;;0.20;0.10;;;;;;;4.51;99.25;99039.59;5073440;28;20450;-47
2024/02/25 03:47:06;;;;;;;0.20;0.10;;;;;;;4.41;99.15;99031.94;5073800;28;20576;-46
2024/02/25 03:49:33;;;;;;;0.20;0.17;;;;;;;4.51;98.94;99036.97;5068111;28;20450;-46
2024/02/25 03:51:59;;;;;;;0.30;0.20;;;;;;;4.41;99.61;99039.84;5073632;28;20449;-46
2024/02/25 03:54:26;;;;;;;0.30;0.13;;;;;;;4.45;99.48;99038.00;5073745;28;20450;-46
2024/02/25 03:56:52;;;;;;;0.20;0.10;;;;;;;4.47;99.26;99037.03;5060051;28;20565;-47
2024/02/25 03:59:19;;;;;;;0.20;0.20;;;;;;;4.46;99.32;99043.22;5054239;28;20906;-46
2024/02/25 04:01:45;;;;;;;0.30;0.10;;;;;;;4.43;99.61;99043.28;5068137;28;20525;-47
2024/02/25 04:04:12;;;;;;;0.20;0.10;;;;;;;4.56;100.00;99046.50;5064499;28;20469;-46
2024/02/25 04:06:38;;;;;;;0.20;0.20;;;;;;;4.48;100.00;99043.16;5074006;28;20799;-46
2024/02/25 04:09:05;;;;;;;0.20;0.20;;;;;;;4.49;100.00;99046.66;5073859;28;20457;-46
2024/02/25 04:11:31;;;;;;;0.30;0.10;;;;;;;4.55;100.00;99043.91;5074046;28;20813;-47
2024/02/25 04:13:58;;;;;;;0.20;0.10;;;;;;;4.52;100.00;99049.22;5074013;28;20486;-46
2024/02/25 04:16:24;;;;;;;0.20;0.10;;;;;;;4.62;100.00;99046.34;5073243;28;20476;-46
2024/02/25 04:18:52;;;;;;;0.30;0.10;;;;;;;4.42;100.00;99053.84;5064488;28;20538;-46
2024/02/25 04:21:19;;;;;;;0.20;0.10;;;;;;;4.60;100.00;99049.91;5070703;28;20499;-46
2024/02/25 04:23:47;;;;;;;0.20;0.20;;;;;;;4.76;100.00;99046.84;5072936;28;20450;-47
2024/02/25 04:26:13;;;;;;;0.20;0.10;;;;;;;4.91;99.71;99050.84;5073053;28;20466;-47
2024/02/25 04:28:40;;;;;;;0.30;0.20;;;;;;;4.78;100.00;99051.22;5072934;28;21053;-46
2024/02/25 04:31:07;;;;;;;0.20;0.10;;;;;;;4.98;99.85;99052.44;5073141;28;20460;-47
2024/02/25 04:33:33;;;;;;;0.20;0.10;;;;;;;5.23;98.81;99046.53;5073197;28;20446;-47
2024/02/25 04:36:00;;;;;;;0.20;0.13;;;;;;;5.50;98.23;99048.41;5073225;28;20474;-47
2024/02/25 04:38:27;;;;;;;0.30;0.20;;;;;;;5.67;97.45;99050.56;5073461;28;20445;-47
2024/02/25 04:40:55;;;;;;;0.30;0.10;;;;;;;5.94;95.82;99041.88;5072762;28;20544;-47
2024/02/25 04:43:22;;;;;;;0.30;0.17;;;;;;;6.13;96.04;99044.81;5070275;28;21016;-46
2024/02/25 04:45:48;;;;;;;0.20;0.20;;;;;;;6.21;94.73;99048.06;5053806;28;20475;-46
2024/02/25 04:48:14;;;;;;;0.30;0.20;;;;;;;6.33;94.11;99043.34;5053194;28;20494;-46
2024/02/25 04:50:41;;;;;;;0.30;0.10;;;;;;;6.49;93.92;99048.06;5058327;28;20502;-47
2024/02/25 04:53:08;;;;;;;0.30;0.10;;;;;;;6.53;93.31;99051.47;5073134;28;20507;-47
2024/02/25 04:55:34;;;;;;;0.30;0.20;;;;;;;6.69;93.74;99050.06;5072428;28;20470;-47
2024/02/25 04:58:01;;;;;;;0.30;0.20;;;;;;;6.82;92.77;99061.06;5063987;28;20521;-47
2024/02/25 05:00:27;;;;;;;0.30;0.10;;;;;;;6.78;92.99;99054.19;5057839;28;20989;-47
2024/02/25 05:02:54;;;;;;;0.30;0.20;;;;;;;6.86;92.74;99059.22;5059708;28;20936;-47
2024/02/25 05:05:20;;;;;;;0.30;0.20;;;;;;;6.98;92.44;99062.28;5070804;28;20470;-47
2024/02/25 05:07:46;;;;;;;0.30;0.20;;;;;;;6.96;91.98;99057.97;5072172;28;20493;-46
2024/02/25 05:10:13;;;;;;;0.30;0.20;;;;;;;7.07;91.45;99059.34;5071872;28;20548;-49
2024/02/25 05:12:39;;;;;;;0.30;0.20;;;;;;;7.10;91.50;99061.00;5071807;28;20512;-49
2024/02/25 05:15:07;;;;;;;0.30;0.10;;;;;;;7.06;91.52;99065.53;5071699;28;20837;-46
2024/02/25 05:17:33;;;;;;;0.30;0.10;;;;;;;7.08;91.30;99066.34;5071822;28;20533;-47
2024/02/25 05:20:00;;;;;;;0.30;0.20;;;;;;;7.06;91.67;99062.91;5058677;28;20477;-46
2024/02/25 05:22:26;;;;;;;0.30;0.20;;;;;;;7.05;92.35;99069.09;5071840;28;20540;-47
2024/02/25 05:24:53;;;;;;;0.40;0.20;;;;;;;6.92;92.64;99065.16;5071608;28;20460;-47
2024/02/25 05:27:21;;;;;;;0.30;0.20;;;;;;;7.11;92.28;99071.50;5071552;28;20531;-47
2024/02/25 05:29:48;;;;;;;0.30;0.20;;;;;;;7.03;92.02;99070.06;5071605;28;20452;-48
2024/02/25 05:32:15;;;;;;;0.30;0.20;;;;;;;6.98;91.66;99079.91;5072253;28;20450;-46
2024/02/25 05:34:41;;;;;;;0.30;0.20;;;;;;;6.97;92.68;99068.47;5072179;28;20454;-47
2024/02/25 05:37:08;;;;;;;0.30;0.20;;;;;;;7.01;92.91;99078.06;5072255;28;20543;-47
2024/02/25 05:39:34;;;;;;;0.30;0.20;;;;;;;6.92;92.64;99072.19;5071969;28;20883;-47
2024/02/25 05:42:01;;;;;;;0.30;0.20;;;;;;;7.00;93.07;99075.47;5072339;28;20442;-47
2024/02/25 05:44:27;;;;;;;0.30;0.13;;;;;;;7.07;92.53;99066.41;5072232;28;20453;-47
2024/02/25 05:46:54;;;;;;;0.30;0.20;;;;;;;7.25;92.07;99071.03;5071865;28;20489;-48
2024/02/25 05:49:20;;;;;;;0.30;0.20;;;;;;;7.04;92.12;99077.09;5059175;28;20450;-47
2024/02/25 05:51:47;;;;;;;0.30;0.20;;;;;;;7.02;92.56;99071.00;5065107;28;20899;-47
2024/02/25 05:54:13;;;;;;;0.30;0.20;;;;;;;7.07;93.57;99072.53;5071886;28;20469;-47
2024/02/25 05:56:40;;;;;;;0.30;0.20;;;;;;;7.08;92.83;99081.34;5058927;28;20486;-47
2024/02/25 05:59:07;;;;;;;0.30;0.17;;;;;;;7.10;92.14;99079.50;5053303;28;20461;-46
2024/02/25 06:01:35;;;;;;;0.30;0.20;;;;;;;7.07;93.37;99069.03;5064990;28;20442;-46
2024/02/25 06:04:03;;;;;;;0.30;0.20;;;;;;;7.02;92.82;99078.91;5060363;28;20926;-47
2024/02/25 06:06:30;;;;;;;0.30;0.20;;;;;;;7.12;92.25;99082.94;5071642;28;20975;-47
2024/02/25 06:08:56;;;;;;;0.40;0.33;;;;;;;7.07;92.41;99079.59;5074104;28;20512;-46
2024/02/25 06:11:23;;;;;;;0.30;0.20;;;;;;;7.06;93.05;99081.38;5075712;28;20450;-47
2024/02/25 06:13:49;;;;;;;0.30;0.20;;;;;;;7.12;92.85;99086.44;5075654;28;20445;-48
2024/02/25 06:16:16;;;;;;;0.30;0.20;;;;;;;7.11;92.60;99089.16;5075327;28;20559;-47
2024/02/25 06:18:42;;;;;;;0.30;0.20;;;;;;;7.25;92.28;99086.91;5073262;28;20894;-48
2024/02/25 06:21:09;;;;;;;0.30;0.20;;;;;;;7.24;92.08;99086.94;5071506;28;20458;-47
2024/02/25 06:23:37;;;;;;;0.30;0.20;;;;;;;7.19;92.64;99084.47;5075308;28;20456;-47
2024/02/25 06:26:05;;;;;;;0.30;0.17;;;;;;;7.18;92.24;99088.03;5075430;28;20498;-47
2024/02/25 06:28:32;;;;;;;0.30;0.20;;;;;;;7.16;92.72;99084.59;5074925;28;20572;-48
2024/02/25 06:30:58;;;;;;;0.30;0.20;;;;;;;7.10;91.98;99096.22;5074964;28;20483;-46
2024/02/25 06:33:25;;;;;;;0.30;0.20;;;;;;;7.13;91.99;99092.63;5074800;28;21022;-46
2024/02/25 06:35:53;;;;;;;0.30;0.20;;;;;;;7.09;92.69;99088.34;5069800;28;20975;-47
2024/02/25 06:38:19;;;;;;;0.30;0.20;;;;;;;7.04;92.11;99093.78;5066267;28;20499;-47
2024/02/25 06:40:46;;;;;;;0.30;0.20;;;;;;;7.13;92.53;99097.91;5074532;28;20919;-47
2024/02/25 06:43:13;;;;;;;0.30;0.20;;;;;;;7.13;92.27;99090.84;5074494;28;20449;-48
2024/02/25 06:45:39;;;;;;;0.30;0.20;;;;;;;7.07;92.41;99091.03;5074453;28;20501;-47
2024/02/25 06:48:06;;;;;;;0.30;0.20;;;;;;;7.13;92.84;99097.91;5072353;28;20481;-46
2024/02/25 06:50:34;;;;;;;0.30;0.20;;;;;;;7.07;92.62;99101.59;5073139;28;20493;-47
2024/02/25 06:53:01;;;;;;;0.30;0.20;;;;;;;7.10;93.05;99104.13;5075037;28;20450;-47
2024/02/25 06:55:28;;;;;;;0.30;0.20;;;;;;;7.07;92.89;99100.75;5074546;28;20553;-47
2024/02/25 06:57:54;;;;;;;0.30;0.20;;;;;;;7.19;92.16;99105.63;5070164;28;20491;-47
2024/02/25 07:00:21;;;;;;;0.30;0.20;;;;;;;7.21;92.12;99108.22;5074450;28;20477;-47
2024/02/25 07:02:47;;;;;;;0.30;0.20;;;;;;;7.25;92.36;99104.53;5064295;28;20454;-48
2024/02/25 07:05:14;;;;;;;0.30;0.20;;;;;;;7.22;93.01;99097.59;5076201;28;20997;-47
2024/02/25 07:07:40;;;;;;;0.30;0.20;;;;;;;7.21;93.26;99098.50;5074300;28;20498;-47
2024/02/25 07:10:07;;;;;;;0.30;0.20;;;;;;;7.22;92.63;99094.06;5073186;28;20473;-48
2024/02/25 07:12:34;;;;;;;0.30;0.20;;;;;;;7.27;92.10;99100.94;5074189;28;20835;-47
2024/02/25 07:15:00;;;;;;;0.30;0.20;;;;;;;7.18;92.71;99106.53;5074279;28;20552;-47
2024/02/25 07:17:27;;;;;;;0.30;0.20;;;;;;;7.22;92.04;99097.59;5074667;28;20484;-46
2024/02/25 07:19:54;;;;;;;0.30;0.20;;;;;;;7.30;92.52;99098.19;5060162;28;20452;-47
2024/02/25 07:22:20;;;;;;;0.30;0.20;;;;;;;7.35;92.61;99103.31;5080949;28;20969;-47
2024/02/25 07:24:46;;;;;;;0.30;0.20;;;;;;;7.39;92.11;99100.50;5073889;28;20446;-47
2024/02/25 07:27:13;;;;;;;0.30;0.20;;;;;;;7.36;91.69;99100.59;5074054;28;20476;-47
2024/02/25 07:29:39;;;;;;;0.30;0.20;;;;;;;7.47;91.22;99104.66;5073937;28;20431;-46
2024/02/25 07:32:06;;;;;;;0.30;0.20;;;;;;;7.54;90.96;99104.41;5074059;28;20450;-47
2024/02/25 07:34:32;;;;;;;0.30;0.20;;;;;;;7.42;90.74;99113.63;5073796;28;20460;-47
2024/02/25 07:36:59;;;;;;;0.30;0.20;;;;;;;7.59;90.93;99114.81;5073778;28;20473;-47
2024/02/25 07:39:25;;;;;;;0.30;0.20;;;;;;;7.79;90.68;99114.09;5073683;28;20458;-47
2024/02/25 07:41:52;;;;;;;0.30;0.20;;;;;;;7.84;89.99;99118.31;5073863;28;20492;-48
2024/02/25 07:44:18;;;;;;;0.30;0.20;;;;;;;7.98;90.17;99116.03;5073584;28;20454;-47
2024/02/25 07:46:45;;;;;;;0.30;0.20;;;;;;;8.02;89.71;99116.75;5073825;28;20559;-52
2024/02/25 07:49:11;;;;;;;0.30;0.20;;;;;;;8.09;89.88;99117.41;5067375;28;20489;-46
2024/02/25 07:51:38;;;;;;;0.30;0.20;;;;;;;8.05;89.72;99116.66;5073515;28;20532;-47
2024/02/25 07:54:05;;;;;;;0.30;0.20;;;;;;;8.18;88.38;99117.03;5073394;28;20489;-47
2024/02/25 07:56:31;;;;;;;0.30;0.20;;;;;;;8.20;88.73;99115.19;5060754;28;20557;-46
2024/02/25 07:58:58;;;;;;;0.30;0.20;;;;;;;8.23;87.94;99112.47;5055424;28;20438;-47
2024/02/25 08:01:24;;;;;;;0.30;0.20;;;;;;;8.22;88.21;99110.72;5066542;28;20947;-46
2024/02/25 08:03:51;;;;;;;0.30;0.20;;;;;;;8.13;88.58;99111.06;5059692;28;20484;-47
2024/02/25 08:06:25;;;;;;;0.30;0.20;;;;;;;8.17;88.53;99112.69;5072919;28;21033;-47
2024/02/25 08:08:53;;;;;;;0.30;0.20;;;;;;;8.08;87.73;99111.22;5072857;28;21010;-47
2024/02/25 08:11:19;;;;;;;0.30;0.20;;;;;;;8.25;88.11;99106.19;5072907;28;20483;-48
2024/02/25 08:13:46;;;;;;;0.30;0.20;;;;;;;8.18;86.84;99112.63;5072929;28;20489;-47
2024/02/25 08:16:12;;;;;;;0.30;0.20;;;;;;;8.13;87.58;99114.59;5072845;28;20478;-47
2024/02/25 08:18:47;;;;;;;0.30;0.20;;;;;;;8.33;87.64;99106.72;5065577;28;20936;-46
2024/02/25 08:21:14;;;;;;;0.30;0.20;;;;;;;8.28;87.77;99108.69;5068528;28;20481;-51
2024/02/25 08:23:41;;;;;;;0.30;0.20;;;;;;;8.36;86.37;99120.81;5072540;28;20450;-50
2024/02/25 08:26:08;;;;;;;0.30;0.20;;;;;;;8.36;87.69;99116.41;5076237;28;20566;-49
2024/02/25 08:28:35;;;;;;;0.30;0.20;;;;;;;8.33;89.12;99124.41;5072665;28;20572;-49
2024/02/25 08:31:02;;;;;;;0.30;0.20;;;;;;;7.96;90.13;99120.50;5072165;28;20536;-50
2024/02/25 08:33:29;;;;;;;0.30;0.20;;;;;;;8.07;91.15;99125.38;5073042;28;20484;-51
2024/02/25 08:35:56;;;;;;;0.30;0.20;;;;;;;8.24;90.80;99123.00;5072508;28;20558;-49
2024/02/25 08:38:23;;;;;;;0.30;0.20;;;;;;;8.32;89.65;99122.69;5072751;28;20446;-49
2024/02/25 08:40:49;;;;;;;0.30;0.20;;;;;;;8.28;89.54;99119.28;5072367;28;20476;-49
2024/02/25 08:43:16;;;;;;;0.30;0.20;;;;;;;8.22;89.44;99127.47;5072187;28;21073;-49
2024/02/25 08:45:42;;;;;;;0.30;0.20;;;;;;;8.18;90.01;99133.78;5072342;28;21072;-49
2024/02/25 08:48:09;;;;;;;0.30;0.20;;;;;;;8.21;90.53;99130.16;5069444;28;20498;-49
2024/02/25 08:50:35;;;;;;;0.30;0.20;;;;;;;8.03;92.23;99139.66;5052838;28;20447;-49
2024/02/25 08:53:03;;;;;;;0.30;0.20;;;;;;;8.08;93.20;99136.81;5062819;28;20453;-49
2024/02/25 08:55:29;;;;;;;0.30;0.20;;;;;;;8.18;93.87;99132.94;5088047;22;20498;-50
2024/02/25 08:57:58;;;;;;;0.30;0.20;;;;;;;8.43;93.73;99133.75;5034589;28;20527;-49
2024/02/25 09:00:24;;;;;;;0.30;0.20;;;;;;;8.36;93.71;99126.09;5037996;28;20442;-50
2024/02/25 09:02:52;;;;;;;0.30;0.30;;;;;;;8.26;92.90;99117.63;5040433;28;20539;-49
2024/02/25 09:05:19;;;;;;;3.60;2.83;;;;;;;8.35;92.75;99122.59;5050639;28;20481;-50
2024/02/25 09:07:45;;;;;;;0.30;0.20;;;;;;;8.31;93.59;99123.59;5040287;28;20499;-50
2024/02/25 09:10:13;;;;;;;0.30;0.20;;;;;;;8.34;92.00;99118.22;5045510;28;20546;-50
2024/02/25 09:12:41;;;;;;;0.30;0.20;;;;;;;8.59;92.60;99126.06;5044594;28;20470;-50
2024/02/25 09:15:08;;;;;;;0.30;0.20;;;;;;;8.49;92.49;99122.06;5038235;28;21001;-50
2024/02/25 09:17:35;;;;;;;0.30;0.20;;;;;;;8.83;91.46;99121.59;5038989;28;20470;-50
2024/02/25 09:20:02;;;;;;;0.30;0.20;;;;;;;8.78;91.00;99112.97;5051080;28;20978;-50
2024/02/25 09:22:28;;;;;;;0.30;0.20;;;;;;;8.89;90.10;99122.19;5048040;28;20447;-50
2024/02/25 09:24:55;;;;;;;0.30;0.20;;;;;;;9.08;89.58;99119.69;5038426;28;20451;-50
2024/02/25 09:27:21;;;;;;;0.30;0.20;;;;;;;9.02;89.82;99117.25;5038627;28;20444;-50
2024/02/25 09:29:49;;;;;;;0.30;0.20;;;;;;;9.00;88.60;99116.47;5038104;28;20534;-50
2024/02/25 09:32:15;;;;;;;0.30;0.20;;;;;;;9.09;87.74;99112.59;5038347;28;20462;-59
2024/02/25 09:34:44;;;;;;;0.30;0.20;;;;;;;9.08;87.65;99097.59;5044544;28;21003;-50
2024/02/25 09:37:11;;;;;;;0.30;0.20;;;;;;;9.23;87.32;99101.41;5044565;28;20513;-50
2024/02/25 09:39:37;;;;;;;0.30;0.20;;;;;;;9.22;86.74;99097.03;5047064;28;20481;-50
2024/02/25 09:42:06;;;;;;;0.30;0.20;;;;;;;9.34;86.19;99101.81;5036851;28;20452;-49
2024/02/25 09:44:35;;;;;;;0.30;0.20;;;;;;;9.23;85.96;99106.72;5042882;28;20463;-50
2024/02/25 09:47:04;;;;;;;0.30;0.20;;;;;;;9.34;85.88;99100.03;5045119;28;20463;-50
2024/02/25 09:49:31;;;;;;;0.30;0.20;;;;;;;9.56;86.34;99097.28;5046174;28;20491;-50
2024/02/25 09:51:59;;;;;;;0.30;0.20;;;;;;;9.38;85.80;99096.31;5038658;28;20956;-50
2024/02/25 09:54:26;;;;;;;0.30;0.20;;;;;;;9.46;85.65;99096.00;5042206;28;20514;-50
2024/02/25 09:56:53;;;;;;;0.30;0.20;;;;;;;9.42;84.69;99086.41;5033996;28;20577;-50
2024/02/25 09:59:19;;;;;;;0.30;0.20;;;;;;;9.51;85.33;99094.00;5042098;28;20544;-50
2024/02/25 10:01:47;;;;;;;0.30;0.20;;;;;;;9.26;84.67;99088.88;5048320;28;20545;-50
2024/02/25 10:04:15;;;;;;;0.30;0.20;;;;;;;9.53;84.04;99093.91;5041868;28;20455;-50
2024/02/25 10:06:44;;;;;;;0.30;0.20;;;;;;;9.28;84.66;99094.09;5044697;28;20468;-50
2024/02/25 10:09:12;;;;;;;0.30;0.20;;;;;;;9.27;85.33;99092.38;5041631;28;20486;-50
2024/02/25 10:11:41;;;;;;;0.30;0.20;;;;;;;9.52;84.87;99084.25;5037701;28;20454;-50
2024/02/25 10:14:09;;;;;;;0.30;0.20;;;;;;;9.63;84.10;99082.84;5040405;28;20456;-50
2024/02/25 10:16:35;;;;;;;0.30;0.20;;;;;;;9.91;83.20;99079.81;5044706;28;20514;-50
2024/02/25 10:19:02;;;;;;;0.30;0.20;;;;;;;9.89;81.50;99081.69;5042330;28;20446;-51
2024/02/25 10:21:28;;;;;;;0.30;0.20;;;;;;;9.85;81.82;99079.22;5046881;28;20485;-51
2024/02/25 10:23:55;;;;;;;0.30;0.20;;;;;;;9.61;82.92;99079.41;5040865;28;20447;-50
2024/02/25 10:26:24;;;;;;;0.30;0.20;;;;;;;9.60;82.52;99079.47;5037929;28;20474;-50
2024/02/25 10:29:03;;;;;;;0.30;0.20;;;;;;;9.88;80.98;99084.41;5039742;28;20537;-50
2024/02/25 10:31:29;;;;;;;0.30;0.20;;;;;;;9.54;81.61;99079.72;5037616;28;20461;-50
2024/02/25 10:33:58;;;;;;;0.30;0.20;;;;;;;9.65;81.16;99075.69;5038147;28;20458;-50
2024/02/25 10:36:26;;;;;;;0.30;0.20;;;;;;;9.43;80.80;99073.09;5037823;28;20456;-50
2024/02/25 10:38:56;;;;;;;0.30;0.20;;;;;;;9.26;81.16;99075.63;5037823;28;20459;-50
2024/02/25 10:41:23;;;;;;;0.30;0.20;;;;;;;9.37;81.39;99076.03;5043279;28;20505;-50
2024/02/25 10:43:56;;;;;;;0.30;0.20;;;;;;;9.52;80.78;99077.13;5044112;28;20462;-50
2024/02/25 10:46:53;;;;;;;0.30;0.20;;;;;;;9.62;80.80;99070.50;5040035;28;20528;-51
2024/02/25 10:49:20;;;;;;;0.30;0.20;;;;;;;9.97;79.54;99076.00;5043284;28;20473;-50
2024/02/25 10:51:48;;;;;;;0.30;0.20;;;;;;;9.75;79.52;99066.38;5037574;28;20531;-50
2024/02/25 10:54:16;;;;;;;0.30;0.20;;;;;;;10.10;79.01;99062.09;5032107;28;20487;-50
2024/02/25 10:56:43;;;;;;;0.30;0.20;;;;;;;10.45;78.20;99061.41;5047703;28;20479;-51
2024/02/25 10:59:12;;;;;;;0.30;0.20;;;;;;;10.47;77.80;99063.06;5041570;28;20485;-51
2024/02/25 11:01:43;;;;;;;0.30;0.20;;;;;;;10.52;77.29;99050.41;5053949;28;20455;-50
2024/02/25 11:04:10;;;;;;;0.30;0.20;;;;;;;10.19;77.24;99049.34;5045268;28;20452;-50
2024/02/25 11:06:37;;;;;;;0.30;0.20;;;;;;;10.16;77.27;99050.34;5047922;28;20474;-50
2024/02/25 11:09:14;;;;;;;0.30;0.20;;;;;;;10.07;76.48;99050.75;5043844;28;20517;-50
2024/02/25 11:11:43;;;;;;;0.30;0.20;;;;;;;10.22;76.44;99049.22;5040828;28;20446;-49
2024/02/25 11:14:29;;;;;;;0.30;0.20;;;;;;;10.04;75.17;99038.50;5040469;28;20998;-50
2024/02/25 11:16:56;;;;;;;0.30;0.20;;;;;;;9.59;76.95;99045.88;5046704;28;20559;-49
2024/02/25 11:19:23;;;;;;;0.30;0.20;;;;;;;9.78;77.09;99047.66;5047993;28;20524;-50
2024/02/25 11:21:54;;;;;;;0.30;0.20;;;;;;;9.81;77.62;99041.34;5046353;28;20539;-49
2024/02/25 11:24:52;;;;;;;0.30;0.20;;;;;;;9.92;77.44;99035.56;5047394;28;20446;-49
2024/02/25 11:27:19;;;;;;;0.30;0.20;;;;;;;9.91;77.73;99039.13;5046593;28;20443;-50
2024/02/25 11:29:46;;;;;;;0.30;0.20;;;;;;;9.79;77.71;99027.28;5040317;28;20494;-49
2024/02/25 11:32:31;;;;;;;0.30;0.20;;;;;;;9.85;76.63;99028.78;5041225;28;20463;-49
2024/02/25 11:34:58;;;;;;;0.30;0.20;;;;;;;9.90;77.00;99025.00;5042289;28;20521;-50
2024/02/25 11:37:25;;;;;;;0.30;0.20;;;;;;;10.04;76.66;99030.53;5040142;28;20487;-50
2024/02/25 11:39:52;;;;;;;0.30;0.20;;;;;;;10.34;76.38;99017.63;5044787;28;20448;-49
2024/02/25 11:42:19;;;;;;;0.30;0.20;;;;;;;10.74;74.91;99006.84;5046950;28;20542;-49